Dades meteomassalio
Diari Summary for Octubre 13, 2017 Units:  Metric    English   Both
« Previous Day
Next Day »
Diari Semanal Mensual Anual Personalitzat
  Maxima: Minima: Mijana:
Temperatura: -17.8 °C -13.4 °C -8.9 °C
Rosada: -17.8 °C -14.4 °C -11.5 °C
Humitat: Humidity % 47 % 75 %
Velocitat del vent: 0 km/h 0 km/h 5.1 km/h
Racha vent: 0 km/h - -
Vent:- - SSW
Pressio: 0 hPa 34693 hPa -
Pluja: 0 mm    
Historical Graphs
 
 
Tabular Data for Octubre 13, 2017
Time Temperature Dew Point Pressure Wind Wind Speed Wind Gust Humidity Rainfall Rate (Hourly) solar Conditions
-17.8 °C -17.8 °C 0 hPa Calm     Humidity % 0 mm SolarRadiationWatts/m^2 W/m2 Conditions
00:02 -11 °C -12.7 °C 34808.1 hPa Calm     81 % 0 mm 0.0 W/m2 CLR
00:07 -11 °C -12.7 °C 34808.1 hPa Calm     81 % 0 mm 0.0 W/m2 CLR
00:12 -11 °C -12.7 °C 34808.1 hPa Calm     81 % 0 mm 0.0 W/m2 CLR
00:17 -11 °C -12.7 °C 34808.1 hPa Calm     82 % 0 mm 0.0 W/m2 CLR
00:22 -11.3 °C -12.9 °C 34808.1 hPa Calm     82 % 0 mm 0.0 W/m2 CLR
00:27 -11.3 °C -12.9 °C 34808.1 hPa Calm     82 % 0 mm 0.0 W/m2 CLR
00:32 -11.3 °C -12.9 °C 34808.1 hPa Calm     82 % 0 mm 0.0 W/m2 CLR
00:37 -11.6 °C -13.2 °C 34808.1 hPa Calm     82 % 0 mm 0.0 W/m2 CLR
00:42 -11.6 °C -13.2 °C 34808.1 hPa Calm     83 % 0 mm 0.0 W/m2 CLR
00:47 -11.6 °C -13.2 °C 34808.1 hPa Calm     83 % 0 mm 0.0 W/m2 CLR
00:52 -11.6 °C -13.1 °C 34808.1 hPa Calm     84 % 0 mm 0.0 W/m2 CLR
00:57 -11.6 °C -13.1 °C 34808.1 hPa Calm     84 % 0 mm 0.0 W/m2 CLR
01:02 -11.6 °C -13.1 °C 34808.1 hPa Calm     84 % 0 mm 0.0 W/m2 CLR
01:07 -11.6 °C -13.1 °C 34808.1 hPa Calm     84 % 0 mm 0.0 W/m2 CLR
01:12 -11.6 °C -12.9 °C 34808.1 hPa Calm     85 % 0 mm 0.0 W/m2 CLR
01:17 -11.6 °C -12.9 °C 34808.1 hPa Calm     85 % 0 mm 0.0 W/m2 CLR
01:22 -11.6 °C -12.9 °C 34808.1 hPa Calm     85 % 0 mm 0.0 W/m2 CLR
01:27 -11.9 °C -13.3 °C 34808.1 hPa Calm     85 % 0 mm 0.0 W/m2 CLR
01:32 -11.9 °C -13.4 °C 34808.1 hPa Calm     84 % 0 mm 0.0 W/m2 CLR
01:37 -11.9 °C -13.4 °C 34808.1 hPa Calm     84 % 0 mm 0.0 W/m2 CLR
01:42 -12.2 °C -13.6 °C 34808.1 hPa Calm     85 % 0 mm 0.0 W/m2 CLR
01:47 -11.9 °C -13.2 °C 34808.1 hPa Calm     86 % 0 mm 0.0 W/m2 CLR
01:52 -11.9 °C -13.2 °C 34808.1 hPa Calm     86 % 0 mm 0.0 W/m2 CLR
01:57 -11.9 °C -13.2 °C 34808.1 hPa Calm     86 % 0 mm 0.0 W/m2 CLR
02:02 -12.2 °C -13.4 °C 34808.1 hPa Calm     86 % 0 mm 0.0 W/m2 CLR
02:07 -12.2 °C -13.4 °C 34808.1 hPa Calm     87 % 0 mm 0.0 W/m2 CLR
02:12 -12.2 °C -13.4 °C 34808.1 hPa Calm     86 % 0 mm 0.0 W/m2 CLR
02:17 -12.6 °C -13.7 °C 34808.1 hPa Calm     87 % 0 mm 0.0 W/m2 CLR
02:22 -12.6 °C -13.7 °C 34808.1 hPa Calm     87 % 0 mm 0.0 W/m2 CLR
02:27 -12.6 °C -13.7 °C 34808.1 hPa Calm     87 % 0 mm 0.0 W/m2 CLR
02:32 -12.6 °C -13.7 °C 34808.1 hPa Calm     87 % 0 mm 0.0 W/m2 CLR
02:37 -12.6 °C -13.7 °C 34808.1 hPa Calm     87 % 0 mm 0.0 W/m2 CLR
02:42 -12.6 °C -13.7 °C 34808.1 hPa Calm     87 % 0 mm 0.0 W/m2 CLR
02:47 -12.6 °C -13.7 °C 34808.1 hPa Calm     87 % 0 mm 0.0 W/m2 CLR
02:52 -12.6 °C -13.7 °C 34808.1 hPa Calm     87 % 0 mm 0.0 W/m2 CLR
02:57 -12.6 °C -13.7 °C 34808.1 hPa Calm     87 % 0 mm 0.0 W/m2 CLR
03:02 -12.6 °C -13.7 °C 34808.1 hPa Calm     87 % 0 mm 0.0 W/m2 CLR
03:07 -12.6 °C -13.7 °C 34808.1 hPa Calm     87 % 0 mm 0.0 W/m2 CLR
03:12 -12.6 °C -13.6 °C 34808.1 hPa Calm     88 % 0 mm 0.0 W/m2 CLR
03:17 -12.6 °C -13.6 °C 34808.1 hPa Calm     88 % 0 mm 0.0 W/m2 CLR
03:22 -12.8 °C -13.9 °C 34808.1 hPa Calm     88 % 0 mm 0.0 W/m2 CLR
03:27 -12.8 °C -13.9 °C 34808.1 hPa Calm     88 % 0 mm 0.0 W/m2 CLR
03:32 -12.8 °C -13.9 °C 34808.1 hPa Calm     88 % 0 mm 0.0 W/m2 CLR
03:37 -12.8 °C -13.9 °C 34808.1 hPa Calm     88 % 0 mm 0.0 W/m2 CLR
03:43 -12.6 °C -13.6 °C 34808.1 hPa Calm     88 % 0 mm 0.0 W/m2 CLR
03:48 -12.8 °C -13.9 °C 34808.1 hPa Calm     88 % 0 mm 0.0 W/m2 CLR
03:53 -12.8 °C -13.9 °C 34808.1 hPa Calm     88 % 0 mm 0.0 W/m2 CLR
03:58 -12.8 °C -13.9 °C 34808.1 hPa Calm     88 % 0 mm 0.0 W/m2 CLR
04:03 -12.8 °C -13.9 °C 34808.1 hPa Calm     88 % 0 mm 0.0 W/m2 CLR
04:08 -12.8 °C -13.9 °C 34808.1 hPa Calm     88 % 0 mm 0.0 W/m2 CLR
04:13 -12.8 °C -13.9 °C 34808.1 hPa Calm     88 % 0 mm 0.0 W/m2 CLR
04:18 -12.8 °C -13.9 °C 34808.1 hPa Calm     88 % 0 mm 0.0 W/m2 CLR
04:23 -12.8 °C -13.8 °C 34808.1 hPa Calm     89 % 0 mm 0.0 W/m2 CLR
04:28 -12.8 °C -13.8 °C 34808.1 hPa Calm     89 % 0 mm 0.0 W/m2 CLR
04:33 -12.8 °C -13.8 °C 34808.1 hPa Calm     89 % 0 mm 0.0 W/m2 CLR
04:38 -12.8 °C -13.8 °C 34808.1 hPa Calm     89 % 0 mm 0.0 W/m2 CLR
04:43 -12.8 °C -13.8 °C 34808.1 hPa Calm     89 % 0 mm 0.0 W/m2 CLR
04:48 -12.8 °C -13.8 °C 34808.1 hPa Calm     89 % 0 mm 0.0 W/m2 CLR
04:53 -13.2 °C -14.1 °C 34808.1 hPa Calm     89 % 0 mm 0.0 W/m2 CLR
04:58 -13.2 °C -14.1 °C 34808.1 hPa Calm     89 % 0 mm 0.0 W/m2 CLR
05:03 -13.2 °C -14.1 °C 34808.1 hPa Calm     89 % 0 mm 0.0 W/m2 CLR
05:08 -13.2 °C -14.2 °C 34808.1 hPa Calm     88 % 0 mm 0.0 W/m2 CLR
05:13 -13.2 °C -14.2 °C 34808.1 hPa Calm     88 % 0 mm 0.0 W/m2 CLR
05:18 -13.4 °C -14.4 °C 34808.1 hPa Calm     89 % 0 mm 0.0 W/m2 CLR
05:23 -13.4 °C -14.4 °C 34808.1 hPa Calm     89 % 0 mm 0.0 W/m2 CLR
05:28 -13.4 °C -14.4 °C 34808.1 hPa Calm     89 % 0 mm 0.0 W/m2 CLR
05:33 -13.4 °C -14.4 °C 34808.1 hPa Calm     89 % 0 mm 0.0 W/m2 CLR
05:38 -13.4 °C -14.4 °C 34808.1 hPa Calm     89 % 0 mm 0.0 W/m2 CLR
05:43 -13.4 °C -14.4 °C 34808.1 hPa Calm     89 % 0 mm 0.0 W/m2 CLR
05:48 -13.4 °C -14.4 °C 34808.1 hPa Calm     89 % 0 mm 0.0 W/m2 CLR
05:53 -13.4 °C -14.4 °C 34808.1 hPa Calm     89 % 0 mm 0.0 W/m2 CLR
05:58 -13.4 °C -14.4 °C 34808.1 hPa Calm     89 % 0 mm 0.0 W/m2 CLR
06:03 -13.4 °C -14.4 °C 34808.1 hPa Calm     89 % 0 mm 0.0 W/m2 CLR
06:08 -13.4 °C -14.4 °C 34818.2 hPa Calm     89 % 0 mm 0.0 W/m2 CLR
06:13 -13.2 °C -14.1 °C 34808.1 hPa Calm     89 % 0 mm 0.0 W/m2 CLR
06:18 -12.8 °C -13.8 °C 34818.2 hPa Calm     89 % 0 mm 0.0 W/m2 CLR
06:23 -12.8 °C -13.7 °C 34818.2 hPa Calm     90 % 0 mm 0.0 W/m2 CLR
06:28 -12.6 °C -13.4 °C 34818.2 hPa Calm     90 % 0 mm 0.0 W/m2 CLR
06:33 -12.6 °C -13.5 °C 34808.1 hPa Calm     89 % 0 mm 0.0 W/m2 CLR
06:38 -12.6 °C -13.5 °C 34818.2 hPa Calm     89 % 0 mm 0.0 W/m2 CLR
06:43 -12.6 °C -13.5 °C 34808.1 hPa Calm     89 % 0 mm 0.0 W/m2 CLR
06:48 -12.6 °C -13.5 °C 34818.2 hPa Calm     89 % 0 mm 0.0 W/m2 CLR
06:53 -12.6 °C -13.5 °C 34818.2 hPa Calm     89 % 0 mm 0.0 W/m2 CLR
06:58 -12.6 °C -13.5 °C 34818.2 hPa Calm     89 % 0 mm 0.0 W/m2 CLR
07:03 -12.2 °C -13.1 °C 34818.2 hPa Calm     90 % 0 mm 0.0 W/m2 CLR
07:08 -12.2 °C -13.2 °C 34818.2 hPa Calm     89 % 0 mm 0.0 W/m2 CLR
07:13 -12.2 °C -13.2 °C 34818.2 hPa Calm     89 % 0 mm 0.0 W/m2 CLR
07:18 -12.2 °C -13.2 °C 34818.2 hPa Calm     89 % 0 mm 0.0 W/m2 CLR
07:23 -12.2 °C -13.2 °C 34818.2 hPa Calm     89 % 0 mm 0.0 W/m2 CLR
07:28 -11.9 °C -12.9 °C 34818.2 hPa Calm     89 % 0 mm 0.0 W/m2 CLR
07:33 -11.9 °C -12.9 °C 34808.1 hPa Calm     89 % 0 mm 0.0 W/m2 CLR
07:39 -11.9 °C -12.9 °C 34808.1 hPa Calm     89 % 0 mm 0.0 W/m2 CLR
07:44 -11.9 °C -12.9 °C 34818.2 hPa Calm     89 % 0 mm 0.0 W/m2 CLR
07:49 -11.9 °C -12.9 °C 34808.1 hPa Calm     89 % 0 mm 0.0 W/m2 CLR
07:54 -11.9 °C -12.9 °C 34808.1 hPa Calm     88 % 0 mm 0.0 W/m2 CLR
07:59 -11.9 °C -13.1 °C 34808.1 hPa Calm     87 % 0 mm 0.0 W/m2 CLR
08:04 -11.9 °C -13.1 °C 34818.2 hPa Calm     87 % 0 mm 0.0 W/m2 OVC
08:09 -11.9 °C -12.9 °C 34818.2 hPa Calm     88 % 0 mm 0.0 W/m2 OVC
08:14 -11.9 °C -12.9 °C 34818.2 hPa Calm     88 % 0 mm 5.0 W/m2 OVC
08:19 -12.2 °C -13.3 °C 34818.2 hPa Calm     88 % 0 mm 11.0 W/m2 BKN
08:24 -12.2 °C -13.3 °C 34818.2 hPa Calm     88 % 0 mm 16.0 W/m2 BKN
08:29 -12.2 °C -13.3 °C 34818.2 hPa Calm     88 % 0 mm 21.0 W/m2 BKN
08:34 -12.2 °C -13.3 °C 34818.2 hPa Calm     88 % 0 mm 26.0 W/m2 BKN
08:39 -12.2 °C -13.2 °C 34818.2 hPa Calm     89 % 0 mm 33.0 W/m2 BKN
08:44 -12.2 °C -13.3 °C 34818.2 hPa Calm     88 % 0 mm 40.0 W/m2 BKN
08:49 -12.2 °C -13.3 °C 34818.2 hPa Calm     88 % 0 mm 44.0 W/m2 BKN
08:54 -12.2 °C -13.2 °C 34831.8 hPa Calm     89 % 0 mm 40.0 W/m2 BKN
08:59 -12.2 °C -13.3 °C 34831.8 hPa Calm     88 % 0 mm 46.0 W/m2 SCT
09:04 -12.2 °C -13.3 °C 34831.8 hPa Calm     88 % 0 mm 72.0 W/m2 FEW
09:09 -12.2 °C -13.3 °C 34831.8 hPa Calm     88 % 0 mm 58.0 W/m2 SCT
09:14 -11.9 °C -12.9 °C 34831.8 hPa Calm     89 % 0 mm 53.0 W/m2 FEW
09:19 -11.9 °C -12.9 °C 34831.8 hPa Calm     88 % 0 mm 62.0 W/m2 SCT
09:24 -11.9 °C -12.9 °C 34831.8 hPa Calm     88 % 0 mm 88.0 W/m2 FEW
09:29 -11.9 °C -12.9 °C 34831.8 hPa Calm     88 % 0 mm 93.0 W/m2 CLR
09:34 -11.9 °C -12.9 °C 34841.9 hPa Calm     88 % 0 mm 107.0 W/m2 CLR
09:39 -11.9 °C -12.9 °C 34841.9 hPa Calm     88 % 0 mm 176.0 W/m2 CLR
09:40 -11.9 °C -12.9 °C 34841.9 hPa Calm     88 % 0 mm 181.0 W/m2 CLR
09:45 -11.6 °C -12.7 °C 34841.9 hPa Calm     87 % 0 mm 197.0 W/m2 CLR
09:50 -11.3 °C -12.6 °C 34841.9 hPa Calm     86 % 0 mm 214.0 W/m2 CLR
09:55 -11 °C -12.4 °C 34841.9 hPa Calm     84 % 0 mm 232.0 W/m2 CLR
10:00 -10.7 °C -12.1 °C 34841.9 hPa Calm     84 % 0 mm 246.0 W/m2 CLR
10:05 -10.4 °C -12.1 °C 34841.9 hPa Calm     82 % 0 mm 260.0 W/m2 CLR
10:10 -10.4 °C -12.3 °C 34841.9 hPa Calm     80 % 0 mm 272.0 W/m2 CLR
10:15 -10.1 °C -12.1 °C 34841.9 hPa Calm     79 % 0 mm 290.0 W/m2 CLR
10:20 -9.8 °C -11.8 °C 34841.9 hPa Calm     78 % 0 mm 302.0 W/m2 CLR
10:25 -9.8 °C -12 °C 34841.9 hPa Calm     77 % 0 mm 316.0 W/m2 CLR
10:32 -9.4 °C -11.7 °C 34831.8 hPa Calm     77 % 0 mm 332.0 W/m2 CLR
10:37 -9.4 °C -11.9 °C 34831.8 hPa Calm     75 % 0 mm 345.0 W/m2 CLR
10:42 -9.1 °C -11.5 °C 34831.8 hPa Calm     76 % 0 mm 357.0 W/m2 CLR
10:47 -8.8 °C -11.3 °C 34841.9 hPa Calm     75 % 0 mm 369.0 W/m2 CLR
10:52 -8.8 °C -11.3 °C 34831.8 hPa Calm     75 % 0 mm 385.0 W/m2 CLR
10:57 -8.8 °C -11.4 °C 34831.8 hPa Calm     74 % 0 mm 397.0 W/m2 CLR
11:02 -8.5 °C -11.1 °C 34831.8 hPa Calm     74 % 0 mm 411.0 W/m2 CLR
11:08 -8.5 °C -11.1 °C 34831.8 hPa Calm     74 % 0 mm 422.0 W/m2 CLR
11:13 -8.2 °C -10.9 °C 34831.8 hPa Calm     73 % 0 mm 436.0 W/m2 CLR
11:18 -8.2 °C -10.8 °C 34831.8 hPa Calm     74 % 0 mm 446.0 W/m2 CLR
11:23 -7.9 °C -10.6 °C 34831.8 hPa Calm     73 % 0 mm 459.0 W/m2 CLR
11:29 -7.9 °C -10.7 °C 34831.8 hPa Calm     72 % 0 mm 469.0 W/m2 CLR
11:34 -7.6 °C -10.4 °C 34831.8 hPa NNW 3.1 km/h 3.1 km/h 72 % 0 mm 483.0 W/m2 CLR
11:39 -7.6 °C -10.3 °C 34831.8 hPa NNW 6 km/h 6 km/h 73 % 0 mm 492.0 W/m2 CLR
11:44 -7.6 °C -10.3 °C 34831.8 hPa North 7.7 km/h 7.7 km/h 73 % 0 mm 499.0 W/m2 CLR
11:49 -7.3 °C -10.1 °C 34831.8 hPa North 11.9 km/h 11.9 km/h 73 % 0 mm 510.0 W/m2 CLR
11:54 -7.3 °C -10.1 °C 34831.8 hPa North 2.6 km/h   73 % 0 mm 519.0 W/m2 CLR
11:59 -7 °C -9.8 °C 34818.2 hPa NNW 6 km/h   72 % 0 mm 527.0 W/m2 CLR
12:04 -6.7 °C -9.6 °C 34818.2 hPa North 3.1 km/h   72 % 0 mm 536.0 W/m2 CLR
12:09 -6.7 °C -9.8 °C 34818.2 hPa NW 9 km/h 9 km/h 70 % 0 mm 543.0 W/m2 CLR
12:14 -6.3 °C -9.4 °C 34818.2 hPa Calm     71 % 0 mm 550.0 W/m2 CLR
12:19 -6.3 °C -9.5 °C 34818.2 hPa North 3.1 km/h 3.1 km/h 70 % 0 mm 557.0 W/m2 CLR
12:24 -6.1 °C -9.4 °C 34818.2 hPa NNW 6 km/h   68 % 0 mm 564.0 W/m2 CLR
12:29 -6.1 °C -9.8 °C 34818.2 hPa North 6 km/h 6 km/h 65 % 0 mm 570.0 W/m2 CLR
12:34 -5.7 °C -9.6 °C 34808.1 hPa NNW 3.1 km/h 3.1 km/h 65 % 0 mm 575.0 W/m2 CLR
12:39 -6.1 °C -10.1 °C 34808.1 hPa NE 6 km/h 6 km/h 63 % 0 mm 584.0 W/m2 CLR
12:44 -5.7 °C -9.9 °C 34808.1 hPa North 6 km/h 6 km/h 62 % 0 mm 587.0 W/m2 CLR
12:49 -5.4 °C -9.9 °C 34808.1 hPa NNW 9 km/h   60 % 0 mm 594.0 W/m2 CLR
12:54 -5.4 °C -9.9 °C 34808.1 hPa North 11.9 km/h 11.9 km/h 60 % 0 mm 596.0 W/m2 CLR
12:59 -5.4 °C -10.1 °C 34808.1 hPa North 9 km/h 9 km/h 59 % 0 mm 599.0 W/m2 CLR
13:04 -5.1 °C -9.7 °C 34797.9 hPa NNW 20.9 km/h 20.9 km/h 60 % 0 mm 605.0 W/m2 CLR
13:09 -5.4 °C -9.9 °C 34797.9 hPa NNW 7.7 km/h 7.7 km/h 60 % 0 mm 606.0 W/m2 CLR
13:14 -5.4 °C -9.8 °C 34797.9 hPa North 12.9 km/h 12.9 km/h 61 % 0 mm 612.0 W/m2 CLR
13:19 -5.4 °C -9.8 °C 34797.9 hPa NNW 9 km/h 9 km/h 61 % 0 mm 613.0 W/m2 CLR
13:24 -5.1 °C -9.4 °C 34784.4 hPa North 6 km/h 6 km/h 62 % 0 mm 613.0 W/m2 CLR
13:29 -5.1 °C -9.2 °C 34784.4 hPa NNW 15.6 km/h 15.6 km/h 63 % 0 mm 615.0 W/m2 CLR
13:34 -5.1 °C -9.2 °C 34784.4 hPa Calm   0.3 km/h 63 % 0 mm 619.0 W/m2 CLR
13:39 -5.1 °C -9.2 °C 34774.2 hPa NW 15 km/h 15 km/h 63 % 0 mm 619.0 W/m2 CLR
13:44 -4.8 °C -8.9 °C 34774.2 hPa North 9 km/h 9 km/h 63 % 0 mm 619.0 W/m2 CLR
13:49 -4.8 °C -9.2 °C 34774.2 hPa Calm   0.3 km/h 61 % 0 mm 619.0 W/m2 CLR
13:54 -4.8 °C -9.4 °C 34774.2 hPa NW 9 km/h   60 % 0 mm 621.0 W/m2 CLR
13:59 -4.5 °C -9.2 °C 34760.7 hPa Calm     59 % 0 mm 619.0 W/m2 CLR
14:04 -4.5 °C -9.2 °C 34760.7 hPa North 7.7 km/h 7.7 km/h 59 % 0 mm 617.0 W/m2 CLR
14:09 -4.5 °C -9.2 °C 34760.7 hPa NNW 20.9 km/h 20.9 km/h 59 % 0 mm 615.0 W/m2 CLR
14:14 -4.5 °C -9.2 °C 34750.5 hPa NNW 15.6 km/h 15.6 km/h 59 % 0 mm 613.0 W/m2 CLR
14:19 -4.5 °C -9.4 °C 34750.5 hPa North 15.6 km/h 15.6 km/h 58 % 0 mm 612.0 W/m2 CLR
14:25 -4.2 °C -9.1 °C 34750.5 hPa NNW 17.9 km/h 17.9 km/h 58 % 0 mm 610.0 W/m2 CLR
14:30 -4.2 °C -9.1 °C 34750.5 hPa NW 23.8 km/h 23.8 km/h 58 % 0 mm 606.0 W/m2 CLR
14:35 -4.2 °C -8.9 °C 34750.5 hPa NW 23.8 km/h 23.8 km/h 59 % 0 mm 605.0 W/m2 CLR
14:40 -3.9 °C -8.7 °C 34740.4 hPa WNW 9 km/h 9 km/h 59 % 0 mm 599.0 W/m2 CLR
14:45 -3.9 °C -8.8 °C 34740.4 hPa WNW 23.8 km/h 23.8 km/h 58 % 0 mm 596.0 W/m2 CLR
14:50 -3.9 °C -8.8 °C 34740.4 hPa NNW 11.9 km/h 11.9 km/h 58 % 0 mm 594.0 W/m2 CLR
14:55 -3.6 °C -8.5 °C 34740.4 hPa North 11.9 km/h 11.9 km/h 58 % 0 mm 589.0 W/m2 CLR
15:00 -3.6 °C -8.5 °C 34740.4 hPa NW 29.8 km/h 29.8 km/h 58 % 0 mm 582.0 W/m2 CLR
15:05 -3.6 °C -8.7 °C 34726.8 hPa NW 23.8 km/h 23.8 km/h 57 % 0 mm 575.0 W/m2 CLR
15:10 -3.6 °C -8.8 °C 34726.8 hPa NNW 23.8 km/h 23.8 km/h 56 % 0 mm 568.0 W/m2 CLR
15:15 -3.3 °C -8.5 °C 34726.8 hPa NNW 29.8 km/h 29.8 km/h 56 % 0 mm 563.0 W/m2 CLR
15:20 -3.3 °C -8.7 °C 34726.8 hPa NNW 32.8 km/h 32.8 km/h 55 % 0 mm 552.0 W/m2 CLR
15:25 -3.3 °C -8.8 °C 34726.8 hPa NNW 15 km/h 15 km/h 54 % 0 mm 543.0 W/m2 CLR
15:30 -2.9 °C -8.7 °C 34716.7 hPa NNW 23.8 km/h 23.8 km/h 53 % 0 mm 538.0 W/m2 CLR
15:35 -2.9 °C -8.9 °C 34716.7 hPa NW 29.8 km/h 29.8 km/h 52 % 0 mm 529.0 W/m2 CLR
15:40 -2.9 °C -8.9 °C 34716.7 hPa NW 26.9 km/h 26.9 km/h 52 % 0 mm 522.0 W/m2 CLR
15:45 -2.9 °C -8.9 °C 34716.7 hPa NW 20.9 km/h 20.9 km/h 52 % 0 mm 510.0 W/m2 CLR
15:50 -2.9 °C -8.9 °C 34716.7 hPa NW 20.8 km/h 20.8 km/h 52 % 0 mm 499.0 W/m2 CLR
15:55 -2.7 °C -8.8 °C 34716.7 hPa NNW 26.9 km/h 26.9 km/h 51 % 0 mm 492.0 W/m2 CLR
16:00 -2.3 °C -8.8 °C 34716.7 hPa NNE 32.8 km/h 32.8 km/h 49 % 0 mm 485.0 W/m2 CLR
16:05 -2.3 °C -8.8 °C 34703.1 hPa NNE 26.9 km/h 26.9 km/h 49 % 0 mm 475.0 W/m2 CLR
16:10 -2.3 °C -9 °C 34703.1 hPa NE 23.8 km/h 23.8 km/h 48 % 0 mm 461.0 W/m2 CLR
16:15 -2.3 °C -9 °C 34703.1 hPa NNE 20.9 km/h 20.9 km/h 48 % 0 mm 448.0 W/m2 CLR
16:20 -2.7 °C -9.3 °C 34703.1 hPa NNE 11.9 km/h 11.9 km/h 48 % 0 mm 438.0 W/m2 CLR
16:25 -2.7 °C -9.5 °C 34703.1 hPa North 23.8 km/h 23.8 km/h 47 % 0 mm 429.0 W/m2 CLR
16:30 -2.3 °C -9.2 °C 34703.1 hPa NNW 15.6 km/h 15.6 km/h 47 % 0 mm 415.0 W/m2 CLR
16:35 -2.7 °C -9.5 °C 34703.1 hPa North 26.9 km/h 26.9 km/h 47 % 0 mm 404.0 W/m2 CLR
16:40 -2.7 °C -9.1 °C 34703.1 hPa NNE 26.9 km/h 26.9 km/h 49 % 0 mm 390.0 W/m2 CLR
16:45 -2.7 °C -9.3 °C 34703.1 hPa NNE 26.9 km/h 26.9 km/h 48 % 0 mm 380.0 W/m2 CLR
16:50 -2.7 °C -9.3 °C 34693 hPa North 20.9 km/h 20.9 km/h 48 % 0 mm 364.0 W/m2 CLR
16:55 -2.9 °C -9.4 °C 34693 hPa NNE 12.9 km/h 12.9 km/h 49 % 0 mm 350.0 W/m2 CLR
17:00 -2.9 °C -9.2 °C 34693 hPa NNE 23.8 km/h 23.8 km/h 50 % 0 mm 336.0 W/m2 CLR
17:05 -2.9 °C -9.1 °C 34693 hPa North 23.8 km/h 23.8 km/h 51 % 0 mm 323.0 W/m2 CLR
17:10 -2.9 °C -8.9 °C 34693 hPa NNE 23.3 km/h 23.3 km/h 52 % 0 mm 313.0 W/m2 CLR
17:15 -2.9 °C -9.1 °C 34693 hPa NNE 23.8 km/h 23.8 km/h 51 % 0 mm 294.0 W/m2 CLR
17:20 -2.9 °C -8.9 °C 34693 hPa North 15.6 km/h 15.6 km/h 52 % 0 mm 283.0 W/m2 CLR
17:25 -2.9 °C -8.7 °C 34693 hPa NNE 15 km/h 15 km/h 53 % 0 mm 269.0 W/m2 CLR
17:30 -3.3 °C -9.2 °C 34693 hPa North 6 km/h 6 km/h 52 % 0 mm 251.0 W/m2 CLR
17:35 -3.3 °C -8.8 °C 34693 hPa NE 11.9 km/h 11.9 km/h 54 % 0 mm 239.0 W/m2 CLR
17:40 -3.3 °C -8.8 °C 34693 hPa North 11.9 km/h 11.9 km/h 54 % 0 mm 225.0 W/m2 CLR
17:45 -3.6 °C -9 °C 34693 hPa NNE 3.1 km/h   55 % 0 mm 209.0 W/m2 CLR
17:50 -3.6 °C -8.8 °C 34693 hPa NNE 12.9 km/h 12.9 km/h 56 % 0 mm 193.0 W/m2 CLR
17:55 -3.6 °C -8.7 °C 34693 hPa NNE 20.9 km/h 20.9 km/h 57 % 0 mm 174.0 W/m2 CLR
18:00 -3.9 °C -8.7 °C 34693 hPa ENE 20.9 km/h 20.9 km/h 59 % 0 mm 160.0 W/m2 CLR
18:05 -3.9 °C -8.5 °C 34693 hPa North 20.9 km/h 20.9 km/h 60 % 0 mm 144.0 W/m2 CLR
18:10 -4.2 °C -8.7 °C 34693 hPa NE 23.8 km/h 23.8 km/h 61 % 0 mm 130.0 W/m2 CLR
18:15 -4.2 °C -8.5 °C 34693 hPa NNE 17.9 km/h 17.9 km/h 62 % 0 mm 113.0 W/m2 CLR
18:25 -4.5 °C -8.7 °C 34693 hPa NNE 20.9 km/h 20.9 km/h 63 % 0 mm 88.0 W/m2 CLR
18:30 -4.5 °C -8.7 °C 34693 hPa NNE 17.9 km/h 17.9 km/h 63 % 0 mm 76.0 W/m2 FEW
18:35 -4.5 °C -8.5 °C 34703.1 hPa NNE 11.9 km/h 11.9 km/h 64 % 0 mm 60.0 W/m2 SCT
18:40 -4.8 °C -8.8 °C 34703.1 hPa North 11.9 km/h 11.9 km/h 64 % 0 mm 51.0 W/m2 SCT
18:45 -4.8 °C -8.7 °C 34703.1 hPa NNE 15 km/h 15 km/h 65 % 0 mm 42.0 W/m2 BKN
18:50 -4.8 °C -8.7 °C 34703.1 hPa North 7.7 km/h 7.7 km/h 65 % 0 mm 35.0 W/m2 BKN
18:55 -5.1 °C -8.8 °C 34703.1 hPa NNE 9 km/h 9 km/h 66 % 0 mm 28.0 W/m2 BKN
19:00 -5.4 °C -9 °C 34703.1 hPa NNW 9 km/h 9 km/h 67 % 0 mm 21.0 W/m2 BKN
19:05 -5.7 °C -9.3 °C 34703.1 hPa NE 15 km/h 15 km/h 67 % 0 mm 16.0 W/m2 BKN
19:10 -5.7 °C -9.2 °C 34703.1 hPa NNE 11.9 km/h 11.9 km/h 68 % 0 mm 12.0 W/m2 BKN
19:15 -6.1 °C -9.4 °C 34703.1 hPa NE 15 km/h 15 km/h 68 % 0 mm 9.0 W/m2 BKN
19:20 -6.3 °C -9.6 °C 34716.7 hPa NNE 17.9 km/h 17.9 km/h 69 % 0 mm 5.0 W/m2 OVC
19:25 -6.3 °C -9.6 °C 34716.7 hPa Calm     69 % 0 mm 0.0 W/m2 OVC
19:30 -6.7 °C -9.9 °C 34716.7 hPa Calm     69 % 0 mm 0.0 W/m2 OVC
19:35 -6.7 °C -9.8 °C 34716.7 hPa Calm     70 % 0 mm 0.0 W/m2 CLR
19:40 -7 °C -9.9 °C 34716.7 hPa NE 15 km/h 15 km/h 71 % 0 mm 0.0 W/m2 CLR
19:45 -7 °C -9.9 °C 34716.7 hPa Calm     71 % 0 mm 0.0 W/m2 CLR
19:50 -7 °C -9.8 °C 34726.8 hPa Calm     72 % 0 mm 0.0 W/m2 CLR
19:55 -7 °C -9.7 °C 34726.8 hPa NE 15 km/h 15 km/h 73 % 0 mm 0.0 W/m2 CLR
20:00 -7 °C -9.7 °C 34726.8 hPa NNE 11.9 km/h 11.9 km/h 73 % 0 mm 0.0 W/m2 CLR
20:05 -7.3 °C -9.9 °C 34726.8 hPa Calm     74 % 0 mm 0.0 W/m2 CLR
20:10 -7.3 °C -9.9 °C 34726.8 hPa NE 15.6 km/h 15.6 km/h 74 % 0 mm 0.0 W/m2 CLR
20:15 -7.3 °C -9.8 °C 34726.8 hPa NNE 6 km/h   75 % 0 mm 0.0 W/m2 CLR
20:17 -7.3 °C -9.8 °C 34726.8 hPa Calm     75 % 0 mm 0.0 W/m2 CLR
20:22 -7.3 °C -9.8 °C 34726.8 hPa North 3.1 km/h 3.1 km/h 75 % 0 mm 0.0 W/m2 CLR
20:27 -7.3 °C -9.8 °C 34740.4 hPa North 6 km/h 6 km/h 75 % 0 mm 0.0 W/m2 CLR
20:32 -7.6 °C -10 °C 34726.8 hPa Calm     76 % 0 mm 0.0 W/m2 CLR
20:37 -7.9 °C -10.3 °C 34740.4 hPa Calm     76 % 0 mm 0.0 W/m2 CLR
20:42 -7.9 °C -10.3 °C 34740.4 hPa Calm     76 % 0 mm 0.0 W/m2 CLR
20:47 -8.2 °C -10.6 °C 34740.4 hPa Calm     76 % 0 mm 0.0 W/m2 CLR
20:52 -8.5 °C -10.9 °C 34740.4 hPa Calm     76 % 0 mm 0.0 W/m2 CLR
20:57 -8.5 °C -10.9 °C 34740.4 hPa Calm     76 % 0 mm 0.0 W/m2 CLR
21:02 -8.8 °C -11.2 °C 34740.4 hPa Calm     76 % 0 mm 0.0 W/m2 CLR
21:07 -8.8 °C -11.2 °C 34740.4 hPa Calm     76 % 0 mm 0.0 W/m2 CLR
21:12 -8.8 °C -11.1 °C 34740.4 hPa Calm     77 % 0 mm 0.0 W/m2 CLR
21:17 -9.1 °C -11.3 °C 34740.4 hPa Calm     77 % 0 mm 0.0 W/m2 CLR
21:22 -9.1 °C -11.3 °C 34740.4 hPa Calm     77 % 0 mm 0.0 W/m2 CLR
21:27 -9.4 °C -11.7 °C 34740.4 hPa Calm     77 % 0 mm 0.0 W/m2 CLR
21:32 -9.4 °C -11.7 °C 34750.5 hPa Calm     77 % 0 mm 0.0 W/m2 CLR
21:37 -9.4 °C -11.7 °C 34750.5 hPa Calm     77 % 0 mm 0.0 W/m2 CLR
21:42 -9.4 °C -11.6 °C 34750.5 hPa Calm     78 % 0 mm 0.0 W/m2 CLR
21:47 -9.4 °C -11.6 °C 34750.5 hPa Calm     78 % 0 mm 0.0 W/m2 CLR
21:52 -9.8 °C -11.8 °C 34750.5 hPa Calm     78 % 0 mm 0.0 W/m2 CLR
21:57 -9.8 °C -11.8 °C 34750.5 hPa Calm     79 % 0 mm 0.0 W/m2 CLR
22:02 -9.8 °C -11.8 °C 34750.5 hPa Calm     79 % 0 mm 0.0 W/m2 CLR
22:07 -9.8 °C -11.8 °C 34760.7 hPa Calm     79 % 0 mm 0.0 W/m2 CLR
22:12 -9.8 °C -11.6 °C 34760.7 hPa Calm     80 % 0 mm 0.0 W/m2 CLR
22:13 -9.8 °C -11.6 °C 34760.7 hPa Calm     80 % 0 mm 0.0 W/m2 CLR
22:18 -9.8 °C -11.6 °C 34760.7 hPa Calm     80 % 0 mm 0.0 W/m2 CLR
22:23 -9.8 °C -11.6 °C 34760.7 hPa Calm     80 % 0 mm 0.0 W/m2 CLR
22:28 -9.8 °C -11.8 °C 34760.7 hPa Calm     79 % 0 mm 0.0 W/m2 CLR
22:33 -10.1 °C -11.9 °C 34760.7 hPa Calm     80 % 0 mm 0.0 W/m2 CLR
22:38 -10.1 °C -11.8 °C 34760.7 hPa Calm     81 % 0 mm 0.0 W/m2 CLR
22:43 -10.1 °C -11.8 °C 34760.7 hPa Calm     81 % 0 mm 0.0 W/m2 CLR
22:48 -10.1 °C -11.7 °C 34760.7 hPa Calm     82 % 0 mm 0.0 W/m2 CLR
22:53 -10.1 °C -11.8 °C 34760.7 hPa Calm     81 % 0 mm 0.0 W/m2 CLR
22:58 -10.1 °C -11.8 °C 34774.2 hPa Calm     81 % 0 mm 0.0 W/m2 CLR
23:03 -10.1 °C -11.7 °C 34774.2 hPa Calm     82 % 0 mm 0.0 W/m2 CLR
23:08 -10.1 °C -11.7 °C 34760.7 hPa Calm     82 % 0 mm 0.0 W/m2 CLR
23:13 -10.1 °C -11.7 °C 34774.2 hPa Calm     82 % 0 mm 0.0 W/m2 CLR
23:18 -10.1 °C -11.7 °C 34774.2 hPa Calm     82 % 0 mm 0.0 W/m2 CLR
23:23 -10.4 °C -11.9 °C 34774.2 hPa Calm     83 % 0 mm 0.0 W/m2 CLR
23:28 -10.1 °C -11.6 °C 34774.2 hPa Calm     83 % 0 mm 0.0 W/m2 CLR
23:33 -10.1 °C -11.6 °C 34774.2 hPa Calm     84 % 0 mm 0.0 W/m2 CLR
23:38 -10.4 °C -11.9 °C 34774.2 hPa Calm     83 % 0 mm 0.0 W/m2 CLR
23:43 -10.4 °C -11.8 °C 34774.2 hPa Calm     84 % 0 mm 0.0 W/m2 CLR
23:48 -10.4 °C -11.9 °C 34774.2 hPa Calm     83 % 0 mm 0.0 W/m2 CLR
23:53 -10.4 °C -11.9 °C 34774.2 hPa Calm     83 % 0 mm 0.0 W/m2 CLR
23:58 -10.7 °C -12.1 °C 34774.2 hPa Calm     84 % 0 mm 0.0 W/m2 CLR
Lo Temps de Massalio
Compliments of Weather Underground - 1.25 mb